SWR57B LSGG-LFMN
Flight info
| Callsign | SWR57B |
|---|---|
| Flight time | 0h 54m |
| Altitude | 21000 |
| Route | MEDAM DCT VEVAR |
| Aircraft | A21N/M-SDE2E3FGHIRWXY/LB1 |
Departure
| Time | 2026-05-04 16:02 |
|---|---|
| Airport | Geneva International Airport (LSGG) |
Arrival
| Time | 2026-05-04 16:56 |
|---|---|
| Airport | Nice-Côte d'Azur Airport (LFMN) |
| Time | Latitude | Longitude | Altitude | Speed | Heading |
|---|---|---|---|---|---|
| 2026-05-04 15:12 | 46.23009 | 6.10527 | 1398 ft | 0 kts | 134° |
| 2026-05-04 15:46 | 46.23014 | 6.10519 | 1407 ft | 4 kts | 131° |
| 2026-05-04 15:46 | 46.23028 | 6.10488 | 1403 ft | 4 kts | 100° |
| 2026-05-04 15:46 | 46.23025 | 6.10455 | 1405 ft | 4 kts | 56° |
| 2026-05-04 15:46 | 46.23016 | 6.10439 | 1408 ft | 1 kts | 45° |
| 2026-05-04 15:47 | 46.23016 | 6.10438 | 1408 ft | 0 kts | 45° |
| 2026-05-04 15:54 | 46.23024 | 6.10451 | 1406 ft | 4 kts | 45° |
| 2026-05-04 15:54 | 46.23055 | 6.10495 | 1403 ft | 8 kts | 45° |
| 2026-05-04 15:55 | 46.23106 | 6.10570 | 1400 ft | 13 kts | 45° |
| 2026-05-04 15:55 | 46.23179 | 6.10675 | 1399 ft | 17 kts | 45° |
| 2026-05-04 15:55 | 46.23278 | 6.10789 | 1398 ft | 19 kts | 7° |
| 2026-05-04 15:55 | 46.23388 | 6.10893 | 1402 ft | 20 kts | 46° |
| 2026-05-04 15:56 | 46.23487 | 6.11038 | 1402 ft | 14 kts | 44° |
| 2026-05-04 15:56 | 46.23558 | 6.11139 | 1398 ft | 15 kts | 44° |
| 2026-05-04 15:56 | 46.23603 | 6.11156 | 1397 ft | 8 kts | 331° |
| 2026-05-04 15:56 | 46.23647 | 6.11101 | 1400 ft | 9 kts | 317° |
| 2026-05-04 15:57 | 46.23701 | 6.11077 | 1393 ft | 9 kts | 32° |
| 2026-05-04 15:57 | 46.23743 | 6.11135 | 1384 ft | 8 kts | 45° |
| 2026-05-04 15:57 | 46.23790 | 6.11203 | 1384 ft | 11 kts | 45° |
| 2026-05-04 15:57 | 46.23852 | 6.11292 | 1381 ft | 14 kts | 44° |
| 2026-05-04 15:58 | 46.23927 | 6.11404 | 1379 ft | 16 kts | 46° |
| 2026-05-04 15:58 | 46.24008 | 6.11522 | 1377 ft | 17 kts | 44° |
| 2026-05-04 15:58 | 46.24092 | 6.11649 | 1373 ft | 18 kts | 45° |
| 2026-05-04 15:58 | 46.24183 | 6.11779 | 1369 ft | 19 kts | 45° |
| 2026-05-04 15:59 | 46.24277 | 6.11918 | 1368 ft | 20 kts | 46° |
| 2026-05-04 15:59 | 46.24378 | 6.12069 | 1372 ft | 22 kts | 46° |
| 2026-05-04 15:59 | 46.24482 | 6.12221 | 1376 ft | 19 kts | 44° |
| 2026-05-04 15:59 | 46.24579 | 6.12357 | 1376 ft | 20 kts | 44° |
| 2026-05-04 16:00 | 46.24676 | 6.12502 | 1370 ft | 21 kts | 47° |
| 2026-05-04 16:00 | 46.24780 | 6.12648 | 1367 ft | 22 kts | 27° |
| 2026-05-04 16:00 | 46.24919 | 6.12719 | 1372 ft | 17 kts | 14° |
| 2026-05-04 16:00 | 46.24990 | 6.12736 | 1375 ft | 5 kts | 348° |
| 2026-05-04 16:01 | 46.25019 | 6.12693 | 1377 ft | 8 kts | 279° |
| 2026-05-04 16:01 | 46.25005 | 6.12655 | 1376 ft | 3 kts | 226° |
| 2026-05-04 16:01 | 46.24985 | 6.12624 | 1377 ft | 6 kts | 226° |
| 2026-05-04 16:01 | 46.24814 | 6.12372 | 1375 ft | 72 kts | 223° |
| 2026-05-04 16:02 | 46.24303 | 6.11624 | 1378 ft | 137 kts | 225° |
| 2026-05-04 16:02 | 46.23536 | 6.10498 | 1428 ft | 173 kts | 226° |
| 2026-05-04 16:02 | 46.21857 | 6.08162 | 2790 ft | 159 kts | 224° |
| 2026-05-04 16:03 | 46.21065 | 6.07140 | 3485 ft | 147 kts | 221° |
| 2026-05-04 16:03 | 46.20272 | 6.06161 | 3860 ft | 158 kts | 219° |
| 2026-05-04 16:03 | 46.19405 | 6.05083 | 4231 ft | 168 kts | 224° |
| 2026-05-04 16:03 | 46.18629 | 6.03812 | 4786 ft | 173 kts | 231° |
| 2026-05-04 16:04 | 46.17927 | 6.02366 | 5332 ft | 178 kts | 236° |
| 2026-05-04 16:04 | 46.15979 | 6.00197 | 6244 ft | 194 kts | 190° |
| 2026-05-04 16:04 | 46.14597 | 6.00425 | 6527 ft | 214 kts | 154° |
| 2026-05-04 16:05 | 46.13310 | 6.01738 | 6789 ft | 239 kts | 140° |
| 2026-05-04 16:05 | 46.12007 | 6.03392 | 7181 ft | 258 kts | 141° |
| 2026-05-04 16:05 | 46.09201 | 6.06877 | 8545 ft | 273 kts | 143° |
| 2026-05-04 16:06 | 46.07744 | 6.08658 | 9357 ft | 275 kts | 144° |
| 2026-05-04 16:06 | 46.03628 | 6.13540 | 10668 ft | 310 kts | 147° |
| 2026-05-04 16:07 | 46.01232 | 6.16096 | 11043 ft | 334 kts | 147° |
| 2026-05-04 16:07 | 45.95447 | 6.22222 | 13062 ft | 349 kts | 147° |
| 2026-05-04 16:08 | 45.93498 | 6.24274 | 13799 ft | 353 kts | 147° |
| 2026-05-04 16:08 | 45.87456 | 6.30649 | 15782 ft | 364 kts | 147° |
| 2026-05-04 16:09 | 45.84068 | 6.34327 | 16739 ft | 370 kts | 147° |
| 2026-05-04 16:09 | 45.79925 | 6.38814 | 17964 ft | 379 kts | 147° |
| 2026-05-04 16:10 | 45.75648 | 6.43331 | 19107 ft | 385 kts | 147° |
| 2026-05-04 16:11 | 45.69076 | 6.50244 | 20741 ft | 394 kts | 147° |
| 2026-05-04 16:11 | 45.66869 | 6.52561 | 21245 ft | 397 kts | 147° |
| 2026-05-04 16:12 | 45.60102 | 6.59658 | 22546 ft | 406 kts | 147° |
| 2026-05-04 16:12 | 45.53154 | 6.66923 | 23089 ft | 426 kts | 147° |
| 2026-05-04 16:13 | 45.48253 | 6.72029 | 23135 ft | 450 kts | 147° |
| 2026-05-04 16:13 | 45.43037 | 6.77407 | 23109 ft | 472 kts | 148° |
| 2026-05-04 16:14 | 45.37650 | 6.82783 | 23157 ft | 472 kts | 148° |
| 2026-05-04 16:14 | 45.32297 | 6.88142 | 23139 ft | 472 kts | 148° |
| 2026-05-04 16:15 | 45.23766 | 6.94795 | 23137 ft | 462 kts | 172° |
| 2026-05-04 16:16 | 45.17409 | 6.95582 | 23138 ft | 459 kts | 178° |
| 2026-05-04 16:16 | 45.07832 | 6.96932 | 23131 ft | 462 kts | 176° |
| 2026-05-04 16:17 | 45.01421 | 6.97941 | 23136 ft | 462 kts | 176° |
| 2026-05-04 16:18 | 44.91830 | 6.99435 | 23134 ft | 463 kts | 176° |
| 2026-05-04 16:18 | 44.88617 | 6.99934 | 23136 ft | 462 kts | 176° |
| 2026-05-04 16:19 | 44.79032 | 7.01497 | 23138 ft | 465 kts | 173° |
| 2026-05-04 16:19 | 44.72661 | 7.03007 | 23143 ft | 466 kts | 173° |
| 2026-05-04 16:20 | 44.63031 | 7.05299 | 23131 ft | 467 kts | 173° |
| 2026-05-04 16:20 | 44.56649 | 7.06807 | 23119 ft | 466 kts | 173° |
| 2026-05-04 16:21 | 44.47032 | 7.09102 | 23121 ft | 467 kts | 173° |
| 2026-05-04 16:22 | 44.40668 | 7.10596 | 23163 ft | 467 kts | 173° |
| 2026-05-04 16:22 | 44.30986 | 7.12871 | 23116 ft | 470 kts | 173° |
| 2026-05-04 16:23 | 44.21392 | 7.15302 | 22117 ft | 466 kts | 167° |
| 2026-05-04 16:24 | 44.09679 | 7.22028 | 20779 ft | 427 kts | 160° |
| 2026-05-04 16:25 | 44.04400 | 7.25120 | 20261 ft | 395 kts | 160° |
| 2026-05-04 16:26 | 43.94825 | 7.30702 | 19330 ft | 364 kts | 161° |
| 2026-05-04 16:26 | 43.87868 | 7.34757 | 18694 ft | 358 kts | 161° |
| 2026-05-04 16:27 | 43.83434 | 7.37801 | 17816 ft | 359 kts | 147° |
| 2026-05-04 16:28 | 43.77952 | 7.43768 | 17005 ft | 357 kts | 145° |
| 2026-05-04 16:28 | 43.72829 | 7.49287 | 16331 ft | 354 kts | 146° |
| 2026-05-04 16:29 | 43.66561 | 7.59446 | 15335 ft | 362 kts | 112° |
| 2026-05-04 16:30 | 43.64135 | 7.69266 | 14372 ft | 356 kts | 112° |
| 2026-05-04 16:31 | 43.62493 | 7.75688 | 13284 ft | 351 kts | 112° |
| 2026-05-04 16:31 | 43.60082 | 7.85025 | 11749 ft | 338 kts | 112° |
| 2026-05-04 16:32 | 43.57757 | 7.94000 | 10743 ft | 316 kts | 112° |
| 2026-05-04 16:33 | 43.56349 | 7.99429 | 10444 ft | 288 kts | 113° |
| 2026-05-04 16:33 | 43.54857 | 8.04541 | 10188 ft | 283 kts | 126° |
| 2026-05-04 16:34 | 43.51773 | 8.07655 | 9963 ft | 279 kts | 167° |
| 2026-05-04 16:34 | 43.49843 | 8.07926 | 9953 ft | 279 kts | 182° |
| 2026-05-04 16:35 | 43.44995 | 8.04011 | 9621 ft | 281 kts | 234° |
| 2026-05-04 16:35 | 43.44324 | 7.96052 | 9256 ft | 289 kts | 272° |
| 2026-05-04 16:36 | 43.44506 | 7.93299 | 9123 ft | 288 kts | 273° |
| 2026-05-04 16:36 | 43.44826 | 7.87813 | 8936 ft | 288 kts | 272° |
| 2026-05-04 16:37 | 43.45120 | 7.82316 | 8731 ft | 288 kts | 271° |
| 2026-05-04 16:37 | 43.45266 | 7.79548 | 8606 ft | 288 kts | 270° |
| 2026-05-04 16:37 | 43.45550 | 7.74086 | 8356 ft | 288 kts | 271° |
| 2026-05-04 16:38 | 43.46135 | 7.68635 | 8089 ft | 295 kts | 294° |
| 2026-05-04 16:39 | 43.45924 | 7.61182 | 7957 ft | 275 kts | 222° |
| 2026-05-04 16:39 | 43.42926 | 7.57966 | 7797 ft | 276 kts | 217° |
| 2026-05-04 16:40 | 43.40123 | 7.54335 | 7566 ft | 277 kts | 223° |
| 2026-05-04 16:40 | 43.37684 | 7.50242 | 7323 ft | 277 kts | 232° |
| 2026-05-04 16:41 | 43.35601 | 7.45766 | 7079 ft | 278 kts | 238° |
| 2026-05-04 16:41 | 43.33195 | 7.38544 | 6717 ft | 279 kts | 248° |
| 2026-05-04 16:42 | 43.31696 | 7.30837 | 6356 ft | 280 kts | 257° |
| 2026-05-04 16:43 | 43.31010 | 7.25545 | 6100 ft | 280 kts | 257° |
| 2026-05-04 16:43 | 43.30315 | 7.20286 | 5845 ft | 277 kts | 257° |
| 2026-05-04 16:43 | 43.29982 | 7.17769 | 5709 ft | 264 kts | 257° |
| 2026-05-04 16:44 | 43.28889 | 7.08520 | 5168 ft | 232 kts | 260° |
| 2026-05-04 16:45 | 43.28515 | 7.04225 | 5020 ft | 228 kts | 271° |
| 2026-05-04 16:46 | 43.30354 | 6.99414 | 4702 ft | 202 kts | 306° |
| 2026-05-04 16:46 | 43.31696 | 6.96726 | 4463 ft | 185 kts | 306° |
| 2026-05-04 16:47 | 43.33482 | 6.94191 | 4192 ft | 183 kts | 327° |
| 2026-05-04 16:47 | 43.35944 | 6.92950 | 4000 ft | 204 kts | 346° |
| 2026-05-04 16:48 | 43.39926 | 6.91218 | 3975 ft | 196 kts | 345° |
| 2026-05-04 16:48 | 43.41235 | 6.90635 | 3985 ft | 197 kts | 345° |
| 2026-05-04 16:49 | 43.43730 | 6.90999 | 3982 ft | 180 kts | 43° |
| 2026-05-04 16:49 | 43.45479 | 6.93429 | 4001 ft | 176 kts | 50° |
| 2026-05-04 16:50 | 43.47233 | 6.95779 | 3999 ft | 178 kts | 49° |
| 2026-05-04 16:50 | 43.49030 | 6.98232 | 3999 ft | 181 kts | 50° |
| 2026-05-04 16:51 | 43.50831 | 7.00701 | 3899 ft | 185 kts | 47° |
| 2026-05-04 16:51 | 43.51738 | 7.01939 | 3718 ft | 180 kts | 49° |
| 2026-05-04 16:51 | 43.53486 | 7.04337 | 3260 ft | 173 kts | 49° |
| 2026-05-04 16:52 | 43.55137 | 7.06600 | 2815 ft | 161 kts | 50° |
| 2026-05-04 16:52 | 43.55925 | 7.07682 | 2603 ft | 160 kts | 50° |
| 2026-05-04 16:53 | 43.57522 | 7.09875 | 2177 ft | 161 kts | 49° |
| 2026-05-04 16:53 | 43.59879 | 7.13112 | 1560 ft | 157 kts | 49° |
| 2026-05-04 16:54 | 43.60644 | 7.14162 | 1335 ft | 145 kts | 50° |
| 2026-05-04 16:55 | 43.63137 | 7.17592 | 640 ft | 127 kts | 50° |
| 2026-05-04 16:55 | 43.64375 | 7.19304 | 300 ft | 122 kts | 52° |
| 2026-05-04 16:56 | 43.65374 | 7.20664 | 44 ft | 122 kts | 52° |
| 2026-05-04 16:56 | 43.66440 | 7.22022 | 26 ft | 1 kts | 21° |
| 2026-05-04 16:57 | 43.66458 | 7.22031 | 26 ft | 6 kts | 21° |
| 2026-05-04 16:57 | 43.66539 | 7.21954 | 26 ft | 16 kts | 233° |
| 2026-05-04 16:58 | 43.66325 | 7.21624 | 26 ft | 10 kts | 295° |
| 2026-05-04 16:58 | 43.66366 | 7.21538 | 26 ft | 12 kts | 313° |
| 2026-05-04 16:59 | 43.66316 | 7.21363 | 26 ft | 12 kts | 204° |
| 2026-05-04 17:00 | 43.65997 | 7.20947 | 26 ft | 19 kts | 224° |
| 2026-05-04 17:00 | 43.65986 | 7.20722 | 26 ft | 0 kts | 285° |
| 2026-05-04 17:01 | 43.65987 | 7.20718 | 26 ft | 0 kts | 287° |
| 2026-05-04 17:04 | 43.65995 | 7.20721 | 26 ft | 0 kts | 259° |
| 2026-05-04 17:07 | 43.65995 | 7.20722 | 26 ft | 0 kts | 259° |
| 2026-05-04 17:12 | 43.65995 | 7.20723 | 27 ft | 0 kts | 259° |
| 2026-05-04 17:17 | 43.65995 | 7.20724 | 27 ft | 0 kts | 259° |